createdAt,value
2022-11-20T00:02:42.313Z,2.40
2022-11-20T00:05:44.584Z,2.50
2022-11-20T00:08:49.009Z,2.50
2022-11-20T00:11:54.536Z,2.50
2022-11-20T00:14:56.138Z,2.40
2022-11-20T00:17:57.805Z,2.40
2022-11-20T00:21:08.096Z,2.40
2022-11-20T00:24:11.381Z,2.40
2022-11-20T00:27:13.253Z,2.40
2022-11-20T00:30:15.415Z,2.50
2022-11-20T00:33:17.303Z,2.50
2022-11-20T00:36:33.892Z,2.50
2022-11-20T00:39:35.904Z,2.50
2022-11-20T00:42:40.091Z,2.60
2022-11-20T00:49:25.520Z,2.60
2022-11-20T00:52:27.297Z,2.50
2022-11-20T00:55:29.203Z,2.60
2022-11-20T00:58:35.485Z,2.60
2022-11-20T01:01:38.284Z,2.60
2022-11-20T01:04:43.194Z,2.70
2022-11-20T01:07:47.754Z,2.70
2022-11-20T01:10:49.655Z,2.70
2022-11-20T01:13:53.471Z,2.70
2022-11-20T01:16:55.296Z,2.70
2022-11-20T01:20:02.816Z,2.70
2022-11-20T01:23:10.793Z,2.70
2022-11-20T01:26:20.677Z,2.70
2022-11-20T01:29:25.525Z,2.70
2022-11-20T01:32:27.509Z,2.70
2022-11-20T01:35:29.257Z,2.70
2022-11-20T01:38:31.048Z,2.80
2022-11-20T01:41:53.211Z,2.80
2022-11-20T01:44:58.964Z,2.70
2022-11-20T01:48:01.078Z,2.80
2022-11-20T01:51:40.681Z,2.90
2022-11-20T01:54:49.364Z,2.90
2022-11-20T01:57:56.820Z,3.00
2022-11-20T02:04:10.873Z,2.80
2022-11-20T02:07:13.343Z,2.80
2022-11-20T02:10:16.153Z,2.80
2022-11-20T02:13:36.766Z,2.70
2022-11-20T02:16:47.267Z,2.70
2022-11-20T02:19:53.535Z,2.70
2022-11-20T02:23:03.608Z,2.60
2022-11-20T02:26:09.910Z,2.50
2022-11-20T02:29:35.291Z,2.50
2022-11-20T02:32:37.852Z,2.40
2022-11-20T02:35:50.158Z,2.40
2022-11-20T02:38:57.961Z,2.50
2022-11-20T02:42:03.398Z,2.60
2022-11-20T02:45:06.744Z,2.50
2022-11-20T02:48:08.814Z,2.50
2022-11-20T02:51:10.780Z,2.50
2022-11-20T02:54:13.964Z,2.50
2022-11-20T02:57:15.682Z,2.60
2022-11-20T03:00:26.563Z,2.40
2022-11-20T03:03:39.181Z,2.40
2022-11-20T03:06:40.938Z,2.40
2022-11-20T03:09:44.031Z,2.40
2022-11-20T03:12:46.377Z,2.40
2022-11-20T03:15:48.214Z,2.40
2022-11-20T03:18:52.761Z,2.40
2022-11-20T03:21:54.554Z,2.50
2022-11-20T03:24:56.464Z,2.50
2022-11-20T03:27:58.259Z,2.50
2022-11-20T03:31:20.200Z,2.50
2022-11-20T03:34:24.883Z,2.70
2022-11-20T03:37:26.604Z,2.70
2022-11-20T03:40:28.558Z,2.70
2022-11-20T03:43:30.604Z,2.70
2022-11-20T03:46:34.827Z,2.60
2022-11-20T03:49:36.605Z,2.60
2022-11-20T03:52:38.262Z,2.60
2022-11-20T03:55:40.060Z,2.70
2022-11-20T03:58:42.371Z,2.80
2022-11-20T04:01:49.319Z,2.80
2022-11-20T04:04:54.295Z,2.90
2022-11-20T04:07:56.107Z,2.90
2022-11-20T04:14:23.856Z,2.90
2022-11-20T04:17:25.547Z,2.90
2022-11-20T04:20:27.290Z,2.90
2022-11-20T04:23:29.134Z,2.90
2022-11-20T04:26:34.426Z,3.00
2022-11-20T04:29:39.150Z,3.10
2022-11-20T04:32:40.776Z,3.10
2022-11-20T04:35:42.629Z,3.10
2022-11-20T04:38:44.870Z,3.10
2022-11-20T04:41:46.603Z,3.10
2022-11-20T04:44:48.426Z,3.00
2022-11-20T04:47:50.582Z,3.10
2022-11-20T04:50:52.944Z,3.10
2022-11-20T04:53:54.996Z,3.00
2022-11-20T04:56:56.734Z,3.00
2022-11-20T04:59:58.493Z,3.00
2022-11-20T05:03:00.770Z,3.10
2022-11-20T05:06:06.726Z,3.10
2022-11-20T05:09:08.654Z,3.10
2022-11-20T05:12:11.056Z,3.10
2022-11-20T05:15:12.866Z,3.10
2022-11-20T05:18:23.626Z,3.10
2022-11-20T05:21:25.519Z,3.10
2022-11-20T05:24:27.619Z,3.20
2022-11-20T05:27:31.816Z,3.20
2022-11-20T05:30:33.467Z,3.10
2022-11-20T05:33:36.455Z,3.10
2022-11-20T05:36:38.106Z,3.10
2022-11-20T05:39:39.961Z,3.20
2022-11-20T05:42:44.583Z,3.20
2022-11-20T05:45:56.510Z,3.20
2022-11-20T05:48:58.654Z,3.20
2022-11-20T05:52:00.540Z,3.20
2022-11-20T05:55:02.559Z,3.30
2022-11-20T05:58:04.428Z,3.20
2022-11-20T06:01:15.403Z,3.30
2022-11-20T06:04:19.785Z,3.20
2022-11-20T06:07:21.462Z,3.20
2022-11-20T06:10:23.133Z,3.10
2022-11-20T06:13:25.509Z,3.00
2022-11-20T06:16:27.311Z,3.00
2022-11-20T06:19:29.347Z,3.10
2022-11-20T06:22:31.025Z,3.00
2022-11-20T06:25:32.771Z,2.90
2022-11-20T06:28:34.590Z,2.90
2022-11-20T06:31:45.513Z,2.90
2022-11-20T06:34:47.317Z,2.80
2022-11-20T06:37:49.164Z,2.80
2022-11-20T06:40:54.098Z,2.90
2022-11-20T06:43:55.943Z,2.90
2022-11-20T06:46:57.738Z,3.00
2022-11-20T06:49:59.654Z,2.90
2022-11-20T06:53:04.946Z,2.90
2022-11-20T06:56:07.850Z,2.90
2022-11-20T06:59:09.741Z,2.90
2022-11-20T07:02:13.008Z,2.90
2022-11-20T07:05:23.774Z,2.90
2022-11-20T07:08:29.291Z,3.00
2022-11-20T07:11:30.959Z,3.00
2022-11-20T07:14:32.759Z,2.90
2022-11-20T07:17:37.333Z,2.90
2022-11-20T07:20:39.070Z,2.90
2022-11-20T07:23:40.899Z,2.90
2022-11-20T07:26:42.577Z,2.90
2022-11-20T07:29:44.294Z,2.90
2022-11-20T07:32:52.506Z,2.90
2022-11-20T07:35:54.229Z,2.90
2022-11-20T07:38:56.087Z,2.80
2022-11-20T07:41:57.673Z,2.90
2022-11-20T07:44:59.311Z,2.90
2022-11-20T07:48:01.234Z,2.90
2022-11-20T07:51:03.054Z,2.90
2022-11-20T07:54:05.055Z,2.80
2022-11-20T07:57:06.668Z,2.90
2022-11-20T08:00:10.784Z,2.90
2022-11-20T08:03:12.763Z,3.00
2022-11-20T08:06:15.651Z,3.00
2022-11-20T08:09:17.201Z,3.00
2022-11-20T08:12:39.198Z,3.20
2022-11-20T08:15:41.555Z,3.20
2022-11-20T08:18:43.141Z,3.30
2022-11-20T08:21:45.031Z,3.40
2022-11-20T08:24:46.622Z,3.50
2022-11-20T08:27:48.284Z,3.70
2022-11-20T08:30:51.143Z,3.80
2022-11-20T08:33:53.248Z,3.80
2022-11-20T08:36:54.940Z,4.00
2022-11-20T08:39:57.858Z,4.10
2022-11-20T08:42:59.734Z,4.20
2022-11-20T08:46:01.467Z,4.30
2022-11-20T08:49:04.039Z,4.50
2022-11-20T08:52:06.477Z,4.60
2022-11-20T08:55:09.116Z,4.60
2022-11-20T08:58:10.981Z,4.70
2022-11-20T09:01:12.664Z,4.80
2022-11-20T09:04:15.256Z,4.60
2022-11-20T09:07:17.135Z,4.60
2022-11-20T09:10:25.814Z,4.60
2022-11-20T09:13:31.730Z,4.70
2022-11-20T09:16:33.491Z,4.80
2022-11-20T09:19:36.491Z,4.80
2022-11-20T09:22:40.938Z,4.70
2022-11-20T09:25:43.348Z,4.70
2022-11-20T09:28:45.248Z,4.90
2022-11-20T09:31:47.110Z,5.00
2022-11-20T09:34:48.695Z,5.10
2022-11-20T09:37:52.062Z,4.90
2022-11-20T09:41:07.143Z,4.90
2022-11-20T09:44:38.859Z,5.10
2022-11-20T09:48:05.087Z,5.00
2022-11-20T09:51:15.020Z,5.10
2022-11-20T09:54:21.726Z,5.10
2022-11-20T09:57:32.078Z,4.90
2022-11-20T10:00:42.944Z,5.00
2022-11-20T10:03:59.095Z,5.00
2022-11-20T10:07:30.976Z,5.10
2022-11-20T10:10:53.604Z,5.10
2022-11-20T10:14:30.742Z,5.10
2022-11-20T10:18:27.786Z,5.10
2022-11-20T10:21:46.983Z,5.20
2022-11-20T10:25:21.030Z,5.10
2022-11-20T10:28:40.840Z,5.20
2022-11-20T10:31:50.207Z,5.10
2022-11-20T10:35:01.376Z,5.00
2022-11-20T10:38:24.461Z,4.90
2022-11-20T10:41:37.079Z,4.90
2022-11-20T10:45:04.390Z,4.90
2022-11-20T10:48:08.233Z,5.00
2022-11-20T10:52:04.796Z,5.00
2022-11-20T10:55:19.585Z,5.00
2022-11-20T10:58:38.494Z,4.90
2022-11-20T11:01:43.798Z,4.90
2022-11-20T11:04:49.878Z,4.90
2022-11-20T11:07:56.350Z,5.00
2022-11-20T11:11:13.867Z,5.10
2022-11-20T11:14:21.515Z,5.10
2022-11-20T11:17:32.855Z,5.20
2022-11-20T11:20:34.561Z,5.30
2022-11-20T11:23:40.505Z,5.40
2022-11-20T11:26:58.898Z,5.40
2022-11-20T11:30:14.962Z,5.50
2022-11-20T11:33:22.729Z,5.50
2022-11-20T11:36:25.983Z,5.50
2022-11-20T11:39:29.432Z,5.60
2022-11-20T11:42:31.784Z,5.60
2022-11-20T11:45:33.457Z,5.50
2022-11-20T11:48:35.191Z,5.50
2022-11-20T11:51:48.890Z,5.40
2022-11-20T11:55:00.817Z,5.50
2022-11-20T11:58:34.611Z,5.50
2022-11-20T12:01:51.987Z,5.50
2022-11-20T12:05:25.373Z,5.70
2022-11-20T12:08:49.267Z,5.70
2022-11-20T12:12:00.732Z,5.80
2022-11-20T12:15:03.374Z,5.80
2022-11-20T12:18:15.315Z,5.80
2022-11-20T12:21:27.255Z,5.80
2022-11-20T12:25:00.014Z,5.90
2022-11-20T12:28:46.987Z,6.00
2022-11-20T12:32:14.145Z,6.00
2022-11-20T12:35:50.015Z,6.00
2022-11-20T12:39:29.449Z,6.10
2022-11-20T12:43:11.866Z,6.20
2022-11-20T12:46:25.428Z,6.20
2022-11-20T12:49:47.275Z,6.30
2022-11-20T12:52:57.431Z,6.20
2022-11-20T12:56:18.280Z,6.20
2022-11-20T12:59:41.626Z,6.20
2022-11-20T13:03:14.032Z,6.20
2022-11-20T13:06:20.319Z,6.10
2022-11-20T13:09:24.178Z,6.10
2022-11-20T13:12:42.625Z,6.20
2022-11-20T13:15:52.920Z,6.30
2022-11-20T13:18:54.894Z,6.40
2022-11-20T13:21:56.602Z,6.50
2022-11-20T13:24:58.236Z,6.50
2022-11-20T13:28:04.167Z,6.50
2022-11-20T13:31:05.817Z,6.70
2022-11-20T13:34:08.082Z,6.80
2022-11-20T13:37:27.525Z,6.90
2022-11-20T13:40:29.388Z,6.80
2022-11-20T13:43:41.418Z,6.90
2022-11-20T13:46:45.707Z,6.90
2022-11-20T13:49:49.149Z,7.00
2022-11-20T13:52:53.744Z,7.00
2022-11-20T13:55:59.875Z,7.10
2022-11-20T13:59:32.579Z,7.00
2022-11-20T14:02:36.026Z,7.10
2022-11-20T14:05:41.706Z,7.10
2022-11-20T14:08:50.058Z,7.10
2022-11-20T14:11:51.730Z,7.10
2022-11-20T14:14:55.349Z,7.10
2022-11-20T14:17:57.814Z,7.10
2022-11-20T14:21:02.511Z,7.00
2022-11-20T14:24:10.736Z,7.00
2022-11-20T14:27:18.466Z,7.00
2022-11-20T14:30:23.707Z,7.00
2022-11-20T14:33:27.559Z,7.00
2022-11-20T14:36:29.393Z,7.10
2022-11-20T14:39:36.194Z,7.00
2022-11-20T14:42:38.324Z,7.00
2022-11-20T14:45:39.987Z,7.00
2022-11-20T14:48:55.623Z,7.00
2022-11-20T14:52:02.559Z,7.00
2022-11-20T14:55:04.539Z,7.00
2022-11-20T14:58:23.849Z,6.90
2022-11-20T15:01:33.562Z,6.90
2022-11-20T15:04:48.909Z,6.90
2022-11-20T15:08:04.796Z,6.80
2022-11-20T15:11:21.719Z,6.80
2022-11-20T15:14:25.608Z,6.70
2022-11-20T15:17:27.515Z,6.70
2022-11-20T15:20:32.991Z,6.60
2022-11-20T15:23:35.696Z,6.60
2022-11-20T15:26:38.849Z,6.60
2022-11-20T15:29:41.084Z,6.60
2022-11-20T15:32:43.159Z,6.50
2022-11-20T15:35:45.288Z,6.50
2022-11-20T15:38:47.097Z,6.40
2022-11-20T15:41:48.695Z,6.40
2022-11-20T15:44:50.285Z,6.40
2022-11-20T15:47:51.857Z,6.40
2022-11-20T15:50:54.998Z,6.40
2022-11-20T15:53:57.298Z,6.40
2022-11-20T15:57:00.049Z,6.40
2022-11-20T16:00:01.813Z,6.40
2022-11-20T16:03:04.042Z,6.40
2022-11-20T16:06:06.156Z,6.30
2022-11-20T16:09:08.347Z,6.40
2022-11-20T16:12:30.937Z,6.40
2022-11-20T16:15:47.875Z,6.40
2022-11-20T16:18:50.287Z,6.30
2022-11-20T16:21:52.250Z,6.40
2022-11-20T16:24:53.877Z,6.40
2022-11-20T16:27:55.472Z,6.40
2022-11-20T16:30:57.141Z,6.50
2022-11-20T16:34:01.847Z,6.50
2022-11-20T16:37:04.224Z,6.60
2022-11-20T16:40:06.596Z,6.60
2022-11-20T16:43:10.989Z,6.50
2022-11-20T16:46:12.676Z,6.50
2022-11-20T16:49:15.319Z,6.60
2022-11-20T16:52:16.949Z,6.60
2022-11-20T16:55:18.661Z,6.60
2022-11-20T16:58:22.331Z,6.60
2022-11-20T17:01:25.400Z,6.60
2022-11-20T17:04:27.083Z,6.60
2022-11-20T17:07:28.736Z,6.70
2022-11-20T17:10:30.439Z,6.60
2022-11-20T17:13:35.936Z,6.60
2022-11-20T17:16:40.703Z,6.60
2022-11-20T17:19:42.397Z,6.60
2022-11-20T17:22:45.082Z,6.60
2022-11-20T17:25:47.602Z,6.60
2022-11-20T17:28:59.010Z,6.60
2022-11-20T17:32:00.669Z,6.60
2022-11-20T17:35:02.237Z,6.60
2022-11-20T17:38:03.816Z,6.60
2022-11-20T17:41:13.928Z,6.60
2022-11-20T17:44:15.533Z,6.60
2022-11-20T17:47:17.102Z,6.60
2022-11-20T17:50:18.921Z,6.60
2022-11-20T17:53:21.187Z,6.60
2022-11-20T17:56:41.996Z,6.70
2022-11-20T17:59:43.745Z,6.60
2022-11-20T18:02:45.695Z,6.60
2022-11-20T18:05:47.333Z,6.60
2022-11-20T18:08:50.088Z,6.60
2022-11-20T18:11:51.663Z,6.60
2022-11-20T18:14:53.269Z,6.60
2022-11-20T18:17:55.564Z,6.50
2022-11-20T18:20:57.157Z,6.50
2022-11-20T18:23:59.041Z,6.50
2022-11-20T18:27:00.699Z,6.50
2022-11-20T18:30:02.664Z,6.40
2022-11-20T18:33:05.099Z,6.40
2022-11-20T18:36:11.014Z,6.40
2022-11-20T18:39:13.821Z,6.40
2022-11-20T18:42:35.001Z,6.40
2022-11-20T18:45:36.572Z,6.30
2022-11-20T18:48:38.770Z,6.30
2022-11-20T18:51:41.332Z,6.30
2022-11-20T18:54:42.984Z,6.30
2022-11-20T18:57:44.709Z,6.30
2022-11-20T19:00:46.306Z,6.30
2022-11-20T19:03:48.021Z,6.30
2022-11-20T19:06:49.834Z,6.30
2022-11-20T19:09:52.650Z,6.20
2022-11-20T19:12:54.328Z,6.30
2022-11-20T19:16:05.252Z,6.20
2022-11-20T19:19:07.422Z,6.30
2022-11-20T19:22:09.604Z,6.30
2022-11-20T19:25:11.378Z,6.30
2022-11-20T19:28:13.087Z,6.30
2022-11-20T19:31:23.079Z,6.40
2022-11-20T19:34:26.321Z,6.40
2022-11-20T19:37:27.954Z,6.40
2022-11-20T19:40:30.546Z,6.40
2022-11-20T19:43:32.282Z,6.40
2022-11-20T19:46:35.769Z,6.40
2022-11-20T19:49:37.477Z,6.40
2022-11-20T19:52:39.234Z,6.40
2022-11-20T19:55:43.062Z,6.40
2022-11-20T19:58:44.769Z,6.40
2022-11-20T20:01:47.016Z,6.40
2022-11-20T20:04:48.851Z,6.40
2022-11-20T20:07:58.169Z,6.40
2022-11-20T20:10:59.939Z,6.40
2022-11-20T20:14:07.211Z,6.40
2022-11-20T20:17:15.078Z,6.40
2022-11-20T20:20:20.212Z,6.30
2022-11-20T20:23:21.935Z,6.30
2022-11-20T20:26:25.221Z,6.30
2022-11-20T20:29:26.906Z,6.40
2022-11-20T20:32:49.765Z,6.30
2022-11-20T20:35:55.025Z,6.20
2022-11-20T20:39:02.816Z,6.20
2022-11-20T20:42:25.481Z,6.30
2022-11-20T20:45:53.803Z,6.20
2022-11-20T20:48:55.460Z,6.20
2022-11-20T20:51:57.379Z,6.10
2022-11-20T20:54:59.365Z,6.10
2022-11-20T20:58:04.696Z,6.00
2022-11-20T21:01:12.119Z,5.90
2022-11-20T21:04:19.807Z,5.90
2022-11-20T21:07:21.673Z,5.90
2022-11-20T21:10:24.260Z,5.90
2022-11-20T21:13:29.749Z,5.90
2022-11-20T21:16:46.932Z,5.90
2022-11-20T21:19:48.797Z,5.90
2022-11-20T21:22:52.760Z,5.80
2022-11-20T21:26:02.612Z,5.70
2022-11-20T21:29:04.379Z,5.70
2022-11-20T21:32:15.821Z,5.60
2022-11-20T21:35:23.824Z,5.60
2022-11-20T21:38:33.242Z,5.60
2022-11-20T21:41:42.062Z,5.60
2022-11-20T21:44:46.358Z,5.60
2022-11-20T21:52:02.560Z,5.70
2022-11-20T21:55:34.496Z,5.80
2022-11-20T21:58:43.493Z,5.80
2022-11-20T22:02:03.732Z,5.80
2022-11-20T22:05:07.392Z,5.80
2022-11-20T22:08:14.470Z,5.90
2022-11-20T22:11:25.523Z,6.00
2022-11-20T22:14:27.724Z,5.90
2022-11-20T22:17:48.276Z,5.90
2022-11-20T22:20:50.139Z,5.90
2022-11-20T22:23:52.462Z,5.90
2022-11-20T22:26:54.204Z,5.90
2022-11-20T22:29:55.909Z,5.90
2022-11-20T22:32:57.552Z,6.00
2022-11-20T22:36:08.284Z,6.00
2022-11-20T22:39:10.059Z,6.00
2022-11-20T22:42:11.746Z,6.00
2022-11-20T22:45:13.958Z,6.10
2022-11-20T22:48:15.583Z,6.10
2022-11-20T22:51:18.732Z,6.10
2022-11-20T22:54:20.342Z,6.20
2022-11-20T22:57:21.921Z,6.10
2022-11-20T23:00:23.723Z,6.10
2022-11-20T23:03:25.354Z,6.20
2022-11-20T23:06:27.268Z,6.30
2022-11-20T23:09:28.906Z,6.30
2022-11-20T23:12:30.550Z,6.30
2022-11-20T23:15:34.267Z,6.20
2022-11-20T23:18:36.603Z,6.20
2022-11-20T23:21:40.489Z,6.10
2022-11-20T23:24:42.307Z,6.10
2022-11-20T23:27:43.942Z,6.10
2022-11-20T23:30:47.609Z,6.10
2022-11-20T23:33:49.566Z,6.10
2022-11-20T23:36:52.377Z,6.20
2022-11-20T23:39:54.085Z,6.20
2022-11-20T23:43:14.419Z,6.30
2022-11-20T23:46:16.911Z,6.20
2022-11-20T23:49:18.921Z,6.20
2022-11-20T23:52:22.069Z,6.20
2022-11-20T23:55:23.982Z,6.20
2022-11-20T23:58:30.145Z,6.20
